Portada
METAR-TAF:

METAR-TAF

Aeroports :

Barbacena, Minas Gerais, Brasil

latitud: 21-15S, longitud: 043-46W, altitud: 1171 m

Observació

L'informe es va fer fa 1 hora i 29 minuts, a les 22:00 UTC
Vent 8 kt del Est, variant entre Est/Nord-Est i Sud-Est
Temperatura 19°C
Humitat 88%
Pressió 1020 hPa
Visibilitat 10 km o més
Cel ennuvolat a una alçada de 1000 ft
Cel ennuvolat a una alçada de 6000 ft
Cel ennuvolat a una alçada de 10000 ft

METAR: SBBQ 132200Z 10008KT 060V130 9999 BKN010 BKN060 BKN100 19/17 Q1020

Hora: 21:29 (23:29 UTC)


TAF: manca

Observacions i pronòstics meteorològics de més de 4000 aeroports (METAR i TAF).

Les estacions disponibles són els punts grocs i vermells al mapa.

Posi el ratolí al punt desitjat per veure el nom de l'estació.

Feu clic per veure les observacions i els pronòstics meteorològics.

Per canviar el mapa: feu clic els botons verds amb una creu de color negre per apropar; al botó verd amb un guió per allunyar la imatge; o en les fletxes verdes per a mapes adjacents.


METAR-TAF: